sensor_id;sensor_type;location;lat;lon;timestamp;temperature;humidity
35796;DHT22;21916;52.428;13.302;2022-08-07T00:01:17;14.90;99.90
35796;DHT22;21916;52.428;13.302;2022-08-07T00:03:44;14.90;99.90
35796;DHT22;21916;52.428;13.302;2022-08-07T00:06:10;14.90;99.90
35796;DHT22;21916;52.428;13.302;2022-08-07T00:08:36;14.80;99.90
35796;DHT22;21916;52.428;13.302;2022-08-07T00:11:03;14.80;99.90
35796;DHT22;21916;52.428;13.302;2022-08-07T00:13:30;14.80;99.90
35796;DHT22;21916;52.428;13.302;2022-08-07T00:15:56;14.80;99.90
35796;DHT22;21916;52.428;13.302;2022-08-07T00:18:25;14.70;99.90
35796;DHT22;21916;52.428;13.302;2022-08-07T00:20:54;14.80;99.90
35796;DHT22;21916;52.428;13.302;2022-08-07T00:23:21;14.80;99.90
35796;DHT22;21916;52.428;13.302;2022-08-07T00:25:48;14.70;99.90
35796;DHT22;21916;52.428;13.302;2022-08-07T00:28:14;14.60;99.90
35796;DHT22;21916;52.428;13.302;2022-08-07T00:30:40;14.50;99.90
35796;DHT22;21916;52.428;13.302;2022-08-07T00:33:06;14.40;99.90
35796;DHT22;21916;52.428;13.302;2022-08-07T00:35:32;14.30;99.90
35796;DHT22;21916;52.428;13.302;2022-08-07T00:37:59;14.40;99.90
35796;DHT22;21916;52.428;13.302;2022-08-07T00:40:26;14.40;99.90
35796;DHT22;21916;52.428;13.302;2022-08-07T00:42:52;14.20;99.90
35796;DHT22;21916;52.428;13.302;2022-08-07T00:45:19;14.30;99.90
35796;DHT22;21916;52.428;13.302;2022-08-07T00:47:47;14.20;99.90
35796;DHT22;21916;52.428;13.302;2022-08-07T00:50:13;14.10;99.90
35796;DHT22;21916;52.428;13.302;2022-08-07T00:52:42;14.10;99.90
35796;DHT22;21916;52.428;13.302;2022-08-07T00:55:09;14.10;99.90
35796;DHT22;21916;52.428;13.302;2022-08-07T00:57:35;14.20;99.90
35796;DHT22;21916;52.428;13.302;2022-08-07T01:00:05;14.30;99.90
35796;DHT22;21916;52.428;13.302;2022-08-07T01:02:32;14.30;99.90
35796;DHT22;21916;52.428;13.302;2022-08-07T01:04:59;14.40;99.90
35796;DHT22;21916;52.428;13.302;2022-08-07T01:07:26;14.20;99.90
35796;DHT22;21916;52.428;13.302;2022-08-07T01:09:52;14.00;99.90
35796;DHT22;21916;52.428;13.302;2022-08-07T01:12:19;14.00;99.90
35796;DHT22;21916;52.428;13.302;2022-08-07T01:14:45;14.00;99.90
35796;DHT22;21916;52.428;13.302;2022-08-07T01:17:12;13.90;99.90
35796;DHT22;21916;52.428;13.302;2022-08-07T01:19:40;13.90;99.90
35796;DHT22;21916;52.428;13.302;2022-08-07T01:22:08;13.90;99.90
35796;DHT22;21916;52.428;13.302;2022-08-07T01:24:40;14.00;99.90
35796;DHT22;21916;52.428;13.302;2022-08-07T01:27:06;13.80;99.90
35796;DHT22;21916;52.428;13.302;2022-08-07T01:29:33;13.90;99.90
35796;DHT22;21916;52.428;13.302;2022-08-07T01:32:00;13.80;99.90
35796;DHT22;21916;52.428;13.302;2022-08-07T01:34:32;13.70;99.90
35796;DHT22;21916;52.428;13.302;2022-08-07T01:37:03;13.70;99.90
35796;DHT22;21916;52.428;13.302;2022-08-07T01:39:30;13.50;99.90
35796;DHT22;21916;52.428;13.302;2022-08-07T01:42:04;13.70;99.90
35796;DHT22;21916;52.428;13.302;2022-08-07T01:44:33;13.80;99.90
35796;DHT22;21916;52.428;13.302;2022-08-07T01:46:59;13.60;99.90
35796;DHT22;21916;52.428;13.302;2022-08-07T01:49:27;13.50;99.90
35796;DHT22;21916;52.428;13.302;2022-08-07T01:51:54;13.50;99.90
35796;DHT22;21916;52.428;13.302;2022-08-07T01:54:20;13.60;99.90
35796;DHT22;21916;52.428;13.302;2022-08-07T01:57:01;13.50;99.90
35796;DHT22;21916;52.428;13.302;2022-08-07T02:02:14;13.40;99.90
35796;DHT22;21916;52.428;13.302;2022-08-07T02:04:45;13.50;99.90
35796;DHT22;21916;52.428;13.302;2022-08-07T02:07:14;13.50;99.90
35796;DHT22;21916;52.428;13.302;2022-08-07T02:09:44;13.50;99.90
35796;DHT22;21916;52.428;13.302;2022-08-07T02:12:12;13.40;99.90
35796;DHT22;21916;52.428;13.302;2022-08-07T02:14:49;13.60;99.90
35796;DHT22;21916;52.428;13.302;2022-08-07T02:17:22;13.50;99.90
35796;DHT22;21916;52.428;13.302;2022-08-07T02:19:50;13.40;99.90
35796;DHT22;21916;52.428;13.302;2022-08-07T02:22:18;13.20;99.90
35796;DHT22;21916;52.428;13.302;2022-08-07T02:24:47;13.20;99.90
35796;DHT22;21916;52.428;13.302;2022-08-07T02:27:14;13.10;99.90
35796;DHT22;21916;52.428;13.302;2022-08-07T02:29:42;13.10;99.90
35796;DHT22;21916;52.428;13.302;2022-08-07T02:32:09;13.20;99.90
35796;DHT22;21916;52.428;13.302;2022-08-07T02:34:38;13.40;99.90
35796;DHT22;21916;52.428;13.302;2022-08-07T02:37:05;13.40;99.90
35796;DHT22;21916;52.428;13.302;2022-08-07T02:39:35;13.50;99.90
35796;DHT22;21916;52.428;13.302;2022-08-07T02:42:05;13.40;99.90
35796;DHT22;21916;52.428;13.302;2022-08-07T02:44:32;13.30;99.90
35796;DHT22;21916;52.428;13.302;2022-08-07T02:47:02;13.20;99.90
35796;DHT22;21916;52.428;13.302;2022-08-07T02:49:30;13.40;99.90
35796;DHT22;21916;52.428;13.302;2022-08-07T02:51:58;13.20;99.90
35796;DHT22;21916;52.428;13.302;2022-08-07T02:54:28;13.10;99.90
35796;DHT22;21916;52.428;13.302;2022-08-07T02:56:59;13.30;99.90
35796;DHT22;21916;52.428;13.302;2022-08-07T02:59:28;13.30;99.90
35796;DHT22;21916;52.428;13.302;2022-08-07T03:02:00;13.10;99.90
35796;DHT22;21916;52.428;13.302;2022-08-07T03:04:28;13.00;99.90
35796;DHT22;21916;52.428;13.302;2022-08-07T03:06:55;12.90;99.90
35796;DHT22;21916;52.428;13.302;2022-08-07T03:09:23;12.90;99.90
35796;DHT22;21916;52.428;13.302;2022-08-07T03:11:50;12.90;99.90
35796;DHT22;21916;52.428;13.302;2022-08-07T03:14:16;12.90;99.90
35796;DHT22;21916;52.428;13.302;2022-08-07T03:16:44;12.90;99.90
35796;DHT22;21916;52.428;13.302;2022-08-07T03:19:10;13.10;99.90
35796;DHT22;21916;52.428;13.302;2022-08-07T03:21:37;13.10;99.90
35796;DHT22;21916;52.428;13.302;2022-08-07T03:24:03;13.10;99.90
35796;DHT22;21916;52.428;13.302;2022-08-07T03:26:32;13.10;99.90
35796;DHT22;21916;52.428;13.302;2022-08-07T03:29:05;13.10;99.90
35796;DHT22;21916;52.428;13.302;2022-08-07T03:31:32;13.20;99.90
35796;DHT22;21916;52.428;13.302;2022-08-07T03:34:02;13.10;99.90
35796;DHT22;21916;52.428;13.302;2022-08-07T03:36:33;13.10;99.90
35796;DHT22;21916;52.428;13.302;2022-08-07T03:39:11;13.00;99.90
35796;DHT22;21916;52.428;13.302;2022-08-07T03:41:40;13.00;99.90
35796;DHT22;21916;52.428;13.302;2022-08-07T03:44:07;13.10;99.90
35796;DHT22;21916;52.428;13.302;2022-08-07T03:46:34;13.20;99.90
35796;DHT22;21916;52.428;13.302;2022-08-07T03:49:02;13.10;99.90
35796;DHT22;21916;52.428;13.302;2022-08-07T03:51:32;12.90;99.90
35796;DHT22;21916;52.428;13.302;2022-08-07T03:53:59;12.90;99.90
35796;DHT22;21916;52.428;13.302;2022-08-07T03:56:28;13.00;99.90
35796;DHT22;21916;52.428;13.302;2022-08-07T03:58:55;12.90;99.90
35796;DHT22;21916;52.428;13.302;2022-08-07T04:01:23;12.90;99.90
35796;DHT22;21916;52.428;13.302;2022-08-07T04:03:49;12.80;99.90
35796;DHT22;21916;52.428;13.302;2022-08-07T04:06:15;12.80;99.90
35796;DHT22;21916;52.428;13.302;2022-08-07T04:08:42;12.80;99.90
35796;DHT22;21916;52.428;13.302;2022-08-07T04:11:09;12.80;99.90
35796;DHT22;21916;52.428;13.302;2022-08-07T04:13:38;12.80;99.90
35796;DHT22;21916;52.428;13.302;2022-08-07T04:16:05;12.80;99.90
35796;DHT22;21916;52.428;13.302;2022-08-07T04:18:32;12.80;99.90
35796;DHT22;21916;52.428;13.302;2022-08-07T04:20:58;12.90;99.90
35796;DHT22;21916;52.428;13.302;2022-08-07T04:23:25;13.00;99.90
35796;DHT22;21916;52.428;13.302;2022-08-07T04:25:52;13.00;99.90
35796;DHT22;21916;52.428;13.302;2022-08-07T04:28:19;13.10;99.90
35796;DHT22;21916;52.428;13.302;2022-08-07T04:30:49;13.10;99.90
35796;DHT22;21916;52.428;13.302;2022-08-07T04:33:25;13.20;99.90
35796;DHT22;21916;52.428;13.302;2022-08-07T04:35:54;13.30;99.90
35796;DHT22;21916;52.428;13.302;2022-08-07T04:38:24;13.40;99.90
35796;DHT22;21916;52.428;13.302;2022-08-07T04:40:51;13.50;99.90
35796;DHT22;21916;52.428;13.302;2022-08-07T04:43:25;13.60;99.90
35796;DHT22;21916;52.428;13.302;2022-08-07T05:02:53;14.60;99.90
35796;DHT22;21916;52.428;13.302;2022-08-07T05:05:36;14.70;99.90
35796;DHT22;21916;52.428;13.302;2022-08-07T05:08:16;14.70;99.90
35796;DHT22;21916;52.428;13.302;2022-08-07T05:11:00;14.80;99.90
35796;DHT22;21916;52.428;13.302;2022-08-07T05:13:31;14.80;99.90
35796;DHT22;21916;52.428;13.302;2022-08-07T05:16:08;15.00;99.90
35796;DHT22;21916;52.428;13.302;2022-08-07T05:18:46;15.10;99.90
35796;DHT22;21916;52.428;13.302;2022-08-07T05:21:16;15.30;99.90
35796;DHT22;21916;52.428;13.302;2022-08-07T05:23:44;15.40;99.90
35796;DHT22;21916;52.428;13.302;2022-08-07T05:26:15;15.50;99.90
35796;DHT22;21916;52.428;13.302;2022-08-07T05:28:44;15.60;99.90
35796;DHT22;21916;52.428;13.302;2022-08-07T05:31:12;15.70;99.90
35796;DHT22;21916;52.428;13.302;2022-08-07T05:33:42;15.80;99.90
35796;DHT22;21916;52.428;13.302;2022-08-07T05:36:09;15.90;99.90
35796;DHT22;21916;52.428;13.302;2022-08-07T05:38:36;16.00;99.90
35796;DHT22;21916;52.428;13.302;2022-08-07T05:41:04;16.20;99.90
35796;DHT22;21916;52.428;13.302;2022-08-07T05:43:30;16.40;99.90
35796;DHT22;21916;52.428;13.302;2022-08-07T05:45:58;16.40;99.90
35796;DHT22;21916;52.428;13.302;2022-08-07T05:48:24;16.60;99.90
35796;DHT22;21916;52.428;13.302;2022-08-07T05:50:51;16.70;99.90
35796;DHT22;21916;52.428;13.302;2022-08-07T05:53:19;16.90;99.90
35796;DHT22;21916;52.428;13.302;2022-08-07T05:55:45;16.90;99.90
35796;DHT22;21916;52.428;13.302;2022-08-07T05:58:13;17.10;99.90
35796;DHT22;21916;52.428;13.302;2022-08-07T06:00:41;17.10;99.90
35796;DHT22;21916;52.428;13.302;2022-08-07T06:03:09;17.30;99.90
35796;DHT22;21916;52.428;13.302;2022-08-07T06:05:37;17.40;99.90
35796;DHT22;21916;52.428;13.302;2022-08-07T06:08:07;17.50;99.90
35796;DHT22;21916;52.428;13.302;2022-08-07T06:10:36;17.60;99.70
35796;DHT22;21916;52.428;13.302;2022-08-07T06:13:04;17.70;99.80
35796;DHT22;21916;52.428;13.302;2022-08-07T06:15:34;17.70;99.20
35796;DHT22;21916;52.428;13.302;2022-08-07T06:18:04;17.80;99.40
35796;DHT22;21916;52.428;13.302;2022-08-07T06:20:34;17.80;99.40
35796;DHT22;21916;52.428;13.302;2022-08-07T06:23:03;17.90;98.70
35796;DHT22;21916;52.428;13.302;2022-08-07T06:25:36;18.10;98.60
35796;DHT22;21916;52.428;13.302;2022-08-07T06:28:05;18.10;98.60
35796;DHT22;21916;52.428;13.302;2022-08-07T06:30:38;18.30;98.60
35796;DHT22;21916;52.428;13.302;2022-08-07T06:33:18;18.40;97.80
35796;DHT22;21916;52.428;13.302;2022-08-07T06:35:46;18.40;96.80
35796;DHT22;21916;52.428;13.302;2022-08-07T06:38:13;18.40;96.80
35796;DHT22;21916;52.428;13.302;2022-08-07T06:40:50;18.40;96.20
35796;DHT22;21916;52.428;13.302;2022-08-07T06:43:20;18.50;96.70
35796;DHT22;21916;52.428;13.302;2022-08-07T06:46:03;18.40;96.70
35796;DHT22;21916;52.428;13.302;2022-08-07T06:48:29;18.50;94.90
35796;DHT22;21916;52.428;13.302;2022-08-07T06:50:59;18.60;95.00
35796;DHT22;21916;52.428;13.302;2022-08-07T06:53:26;18.60;94.40
35796;DHT22;21916;52.428;13.302;2022-08-07T06:55:53;18.60;94.50
35796;DHT22;21916;52.428;13.302;2022-08-07T06:58:21;18.70;94.90
35796;DHT22;21916;52.428;13.302;2022-08-07T07:00:53;18.90;94.90
35796;DHT22;21916;52.428;13.302;2022-08-07T07:03:22;19.10;94.60
35796;DHT22;21916;52.428;13.302;2022-08-07T07:05:48;19.20;94.00
35796;DHT22;21916;52.428;13.302;2022-08-07T07:08:14;19.20;93.40
35796;DHT22;21916;52.428;13.302;2022-08-07T07:10:40;19.40;93.40
35796;DHT22;21916;52.428;13.302;2022-08-07T07:13:13;19.50;93.10
35796;DHT22;21916;52.428;13.302;2022-08-07T07:15:47;19.70;93.20
35796;DHT22;21916;52.428;13.302;2022-08-07T07:18:18;19.70;92.90
35796;DHT22;21916;52.428;13.302;2022-08-07T07:20:51;19.90;92.50
35796;DHT22;21916;52.428;13.302;2022-08-07T07:23:19;19.90;92.50
35796;DHT22;21916;52.428;13.302;2022-08-07T07:25:49;20.10;92.20
35796;DHT22;21916;52.428;13.302;2022-08-07T07:28:23;20.10;91.90
35796;DHT22;21916;52.428;13.302;2022-08-07T07:30:59;20.20;91.80
35796;DHT22;21916;52.428;13.302;2022-08-07T07:33:27;20.20;91.40
35796;DHT22;21916;52.428;13.302;2022-08-07T07:35:56;20.20;90.70
35796;DHT22;21916;52.428;13.302;2022-08-07T07:38:23;20.20;90.90
35796;DHT22;21916;52.428;13.302;2022-08-07T07:41:00;20.40;90.80
35796;DHT22;21916;52.428;13.302;2022-08-07T07:43:30;20.60;90.20
35796;DHT22;21916;52.428;13.302;2022-08-07T07:45:57;20.60;90.40
35796;DHT22;21916;52.428;13.302;2022-08-07T07:48:26;20.80;90.20
35796;DHT22;21916;52.428;13.302;2022-08-07T07:50:53;20.90;90.00
35796;DHT22;21916;52.428;13.302;2022-08-07T07:53:21;20.90;89.30
35796;DHT22;21916;52.428;13.302;2022-08-07T07:55:49;21.00;87.90
35796;DHT22;21916;52.428;13.302;2022-08-07T07:58:17;21.00;87.30
35796;DHT22;21916;52.428;13.302;2022-08-07T08:00:45;21.00;87.20
35796;DHT22;21916;52.428;13.302;2022-08-07T08:03:14;20.90;87.10
35796;DHT22;21916;52.428;13.302;2022-08-07T08:05:42;20.90;87.20
35796;DHT22;21916;52.428;13.302;2022-08-07T08:08:09;21.00;87.30
35796;DHT22;21916;52.428;13.302;2022-08-07T08:10:37;21.10;87.70
35796;DHT22;21916;52.428;13.302;2022-08-07T08:13:05;21.20;85.60
35796;DHT22;21916;52.428;13.302;2022-08-07T08:15:35;21.20;85.60
35796;DHT22;21916;52.428;13.302;2022-08-07T08:18:02;21.20;86.90
35796;DHT22;21916;52.428;13.302;2022-08-07T08:20:32;21.20;85.70
35796;DHT22;21916;52.428;13.302;2022-08-07T08:23:00;21.10;85.30
35796;DHT22;21916;52.428;13.302;2022-08-07T08:25:45;21.00;85.70
35796;DHT22;21916;52.428;13.302;2022-08-07T08:28:33;21.10;86.50
35796;DHT22;21916;52.428;13.302;2022-08-07T08:31:02;21.20;85.10
35796;DHT22;21916;52.428;13.302;2022-08-07T08:33:30;21.30;84.70
35796;DHT22;21916;52.428;13.302;2022-08-07T08:35:59;21.20;85.30
35796;DHT22;21916;52.428;13.302;2022-08-07T08:38:31;21.30;84.70
35796;DHT22;21916;52.428;13.302;2022-08-07T08:41:13;21.20;84.20
35796;DHT22;21916;52.428;13.302;2022-08-07T08:46:48;21.30;84.70
35796;DHT22;21916;52.428;13.302;2022-08-07T08:49:30;21.30;83.90
35796;DHT22;21916;52.428;13.302;2022-08-07T08:52:10;21.40;83.50
35796;DHT22;21916;52.428;13.302;2022-08-07T08:54:42;21.60;83.00
35796;DHT22;21916;52.428;13.302;2022-08-07T08:57:39;21.70;82.20
35796;DHT22;21916;52.428;13.302;2022-08-07T09:00:07;21.90;81.60
35796;DHT22;21916;52.428;13.302;2022-08-07T09:10:44;22.10;81.20
35796;DHT22;21916;52.428;13.302;2022-08-07T09:13:36;22.00;80.40
35796;DHT22;21916;52.428;13.302;2022-08-07T09:21:43;22.10;79.60
35796;DHT22;21916;52.428;13.302;2022-08-07T09:27:29;22.00;80.80
35796;DHT22;21916;52.428;13.302;2022-08-07T09:30:06;22.20;79.80
35796;DHT22;21916;52.428;13.302;2022-08-07T09:33:11;22.10;78.90
35796;DHT22;21916;52.428;13.302;2022-08-07T09:35:53;22.20;79.40
35796;DHT22;21916;52.428;13.302;2022-08-07T09:39:00;22.40;78.70
35796;DHT22;21916;52.428;13.302;2022-08-07T09:52:24;22.30;77.60
35796;DHT22;21916;52.428;13.302;2022-08-07T10:00:20;23.40;75.30
35796;DHT22;21916;52.428;13.302;2022-08-07T10:03:16;23.80;74.50
35796;DHT22;21916;52.428;13.302;2022-08-07T10:17:10;23.70;70.40
35796;DHT22;21916;52.428;13.302;2022-08-07T10:35:59;25.90;70.00
35796;DHT22;21916;52.428;13.302;2022-08-07T10:39:14;26.30;68.90
35796;DHT22;21916;52.428;13.302;2022-08-07T10:41:37;26.70;68.20
35796;DHT22;21916;52.428;13.302;2022-08-07T10:45:07;27.10;66.80
35796;DHT22;21916;52.428;13.302;2022-08-07T10:49:38;28.30;65.40
35796;DHT22;21916;52.428;13.302;2022-08-07T10:52:10;29.20;65.00
35796;DHT22;21916;52.428;13.302;2022-08-07T10:54:50;30.20;61.60
35796;DHT22;21916;52.428;13.302;2022-08-07T10:57:42;31.30;60.50
35796;DHT22;21916;52.428;13.302;2022-08-07T11:00:12;33.10;57.40
35796;DHT22;21916;52.428;13.302;2022-08-07T11:02:55;34.30;54.30
35796;DHT22;21916;52.428;13.302;2022-08-07T11:08:35;33.20;53.10
35796;DHT22;21916;52.428;13.302;2022-08-07T11:11:30;32.60;52.20
35796;DHT22;21916;52.428;13.302;2022-08-07T11:14:21;32.20;52.20
35796;DHT22;21916;52.428;13.302;2022-08-07T11:16:53;30.20;53.80
35796;DHT22;21916;52.428;13.302;2022-08-07T11:22:16;30.00;54.20
35796;DHT22;21916;52.428;13.302;2022-08-07T11:25:23;30.70;53.30
35796;DHT22;21916;52.428;13.302;2022-08-07T11:28:00;30.80;52.40
35796;DHT22;21916;52.428;13.302;2022-08-07T11:31:21;30.40;53.10
35796;DHT22;21916;52.428;13.302;2022-08-07T11:33:41;31.30;52.90
35796;DHT22;21916;52.428;13.302;2022-08-07T11:39:11;34.30;51.20
35796;DHT22;21916;52.428;13.302;2022-08-07T11:41:46;35.40;49.70
35796;DHT22;21916;52.428;13.302;2022-08-07T11:44:26;34.60;49.50
35796;DHT22;21916;52.428;13.302;2022-08-07T11:55:32;34.60;48.30
35796;DHT22;21916;52.428;13.302;2022-08-07T11:58:25;33.40;48.90
35796;DHT22;21916;52.428;13.302;2022-08-07T12:01:08;32.60;49.60
35796;DHT22;21916;52.428;13.302;2022-08-07T12:09:40;31.30;49.70
35796;DHT22;21916;52.428;13.302;2022-08-07T12:12:09;30.60;50.30
35796;DHT22;21916;52.428;13.302;2022-08-07T12:14:47;29.60;50.80
35796;DHT22;21916;52.428;13.302;2022-08-07T12:17:16;29.70;51.10
35796;DHT22;21916;52.428;13.302;2022-08-07T12:25:25;37.30;46.50
35796;DHT22;21916;52.428;13.302;2022-08-07T12:31:12;39.20;44.90
35796;DHT22;21916;52.428;13.302;2022-08-07T12:33:40;40.00;44.00
35796;DHT22;21916;52.428;13.302;2022-08-07T12:36:07;40.00;43.50
35796;DHT22;21916;52.428;13.302;2022-08-07T12:38:37;40.90;42.80
35796;DHT22;21916;52.428;13.302;2022-08-07T12:41:04;40.00;41.40
35796;DHT22;21916;52.428;13.302;2022-08-07T12:43:33;39.20;42.20
35796;DHT22;21916;52.428;13.302;2022-08-07T12:49:07;34.90;43.50
35796;DHT22;21916;52.428;13.302;2022-08-07T12:51:48;33.70;44.50
35796;DHT22;21916;52.428;13.302;2022-08-07T12:54:42;34.30;44.10
35796;DHT22;21916;52.428;13.302;2022-08-07T12:57:09;34.30;44.60
35796;DHT22;21916;52.428;13.302;2022-08-07T12:59:37;34.90;44.00
35796;DHT22;21916;52.428;13.302;2022-08-07T13:05:13;37.50;42.70
35796;DHT22;21916;52.428;13.302;2022-08-07T13:08:01;39.40;41.50
35796;DHT22;21916;52.428;13.302;2022-08-07T13:11:07;41.10;41.20
35796;DHT22;21916;52.428;13.302;2022-08-07T13:16:46;39.70;40.50
35796;DHT22;21916;52.428;13.302;2022-08-07T13:22:14;37.80;41.30
35796;DHT22;21916;52.428;13.302;2022-08-07T13:24:57;38.20;41.30
35796;DHT22;21916;52.428;13.302;2022-08-07T13:27:36;38.50;41.20
35796;DHT22;21916;52.428;13.302;2022-08-07T13:30:07;39.40;40.80
35796;DHT22;21916;52.428;13.302;2022-08-07T13:33:20;39.50;41.00
35796;DHT22;21916;52.428;13.302;2022-08-07T13:36:02;41.00;40.20
35796;DHT22;21916;52.428;13.302;2022-08-07T13:38:54;42.20;40.00
35796;DHT22;21916;52.428;13.302;2022-08-07T13:41:29;42.70;39.50
35796;DHT22;21916;52.428;13.302;2022-08-07T13:44:02;43.10;38.70
35796;DHT22;21916;52.428;13.302;2022-08-07T13:46:35;43.30;38.60
35796;DHT22;21916;52.428;13.302;2022-08-07T13:49:02;43.90;38.10
35796;DHT22;21916;52.428;13.302;2022-08-07T13:51:33;42.50;37.70
35796;DHT22;21916;52.428;13.302;2022-08-07T13:54:06;42.80;38.00
35796;DHT22;21916;52.428;13.302;2022-08-07T13:56:34;42.20;37.60
35796;DHT22;21916;52.428;13.302;2022-08-07T13:59:01;42.00;37.90
35796;DHT22;21916;52.428;13.302;2022-08-07T14:01:34;42.40;38.30
35796;DHT22;21916;52.428;13.302;2022-08-07T14:04:08;43.30;37.50
35796;DHT22;21916;52.428;13.302;2022-08-07T14:06:41;44.20;37.40
35796;DHT22;21916;52.428;13.302;2022-08-07T14:09:24;45.40;37.00
35796;DHT22;21916;52.428;13.302;2022-08-07T14:12:00;46.00;36.70
35796;DHT22;21916;52.428;13.302;2022-08-07T14:14:50;44.50;36.30
35796;DHT22;21916;52.428;13.302;2022-08-07T14:17:22;43.70;36.60
35796;DHT22;21916;52.428;13.302;2022-08-07T14:19:55;43.40;37.10
35796;DHT22;21916;52.428;13.302;2022-08-07T14:22:25;42.10;37.00
35796;DHT22;21916;52.428;13.302;2022-08-07T14:25:14;42.00;37.50
35796;DHT22;21916;52.428;13.302;2022-08-07T14:27:45;42.50;36.60
35796;DHT22;21916;52.428;13.302;2022-08-07T14:30:13;41.30;36.70
35796;DHT22;21916;52.428;13.302;2022-08-07T14:32:49;41.90;37.20
35796;DHT22;21916;52.428;13.302;2022-08-07T14:35:21;43.20;36.60
35796;DHT22;21916;52.428;13.302;2022-08-07T14:37:49;42.60;36.40
35796;DHT22;21916;52.428;13.302;2022-08-07T14:40:20;41.30;37.10
35796;DHT22;21916;52.428;13.302;2022-08-07T14:42:59;39.90;37.10
35796;DHT22;21916;52.428;13.302;2022-08-07T14:48:15;37.80;38.30
35796;DHT22;21916;52.428;13.302;2022-08-07T14:50:52;37.50;38.50
35796;DHT22;21916;52.428;13.302;2022-08-07T14:53:21;36.10;39.20
35796;DHT22;21916;52.428;13.302;2022-08-07T14:55:48;34.60;39.70
35796;DHT22;21916;52.428;13.302;2022-08-07T14:58:15;32.10;41.60
35796;DHT22;21916;52.428;13.302;2022-08-07T15:00:46;31.40;43.10
35796;DHT22;21916;52.428;13.302;2022-08-07T15:03:14;31.70;42.50
35796;DHT22;21916;52.428;13.302;2022-08-07T15:05:40;32.40;42.10
35796;DHT22;21916;52.428;13.302;2022-08-07T15:08:08;32.00;41.80
35796;DHT22;21916;52.428;13.302;2022-08-07T15:10:38;31.50;42.10
35796;DHT22;21916;52.428;13.302;2022-08-07T15:13:14;31.50;42.60
35796;DHT22;21916;52.428;13.302;2022-08-07T15:15:46;32.60;42.70
35796;DHT22;21916;52.428;13.302;2022-08-07T15:18:33;33.50;41.80
35796;DHT22;21916;52.428;13.302;2022-08-07T15:21:06;34.20;40.90
35796;DHT22;21916;52.428;13.302;2022-08-07T15:23:37;33.30;41.40
35796;DHT22;21916;52.428;13.302;2022-08-07T15:26:04;32.70;41.70
35796;DHT22;21916;52.428;13.302;2022-08-07T15:28:34;31.00;42.90
35796;DHT22;21916;52.428;13.302;2022-08-07T15:31:07;30.40;43.60
35796;DHT22;21916;52.428;13.302;2022-08-07T15:33:34;31.30;43.40
35796;DHT22;21916;52.428;13.302;2022-08-07T15:36:05;32.10;42.90
35796;DHT22;21916;52.428;13.302;2022-08-07T15:38:36;31.20;42.60
35796;DHT22;21916;52.428;13.302;2022-08-07T15:41:10;31.00;43.20
35796;DHT22;21916;52.428;13.302;2022-08-07T15:43:39;30.40;43.60
35796;DHT22;21916;52.428;13.302;2022-08-07T15:46:17;31.10;43.30
35796;DHT22;21916;52.428;13.302;2022-08-07T15:48:43;31.60;42.50
35796;DHT22;21916;52.428;13.302;2022-08-07T15:51:12;31.40;43.00
35796;DHT22;21916;52.428;13.302;2022-08-07T15:53:50;30.30;43.50
35796;DHT22;21916;52.428;13.302;2022-08-07T15:56:20;29.20;44.60
35796;DHT22;21916;52.428;13.302;2022-08-07T15:58:55;29.20;44.60
35796;DHT22;21916;52.428;13.302;2022-08-07T16:01:32;30.70;44.40
35796;DHT22;21916;52.428;13.302;2022-08-07T16:04:00;31.80;42.80
35796;DHT22;21916;52.428;13.302;2022-08-07T16:06:33;32.10;42.50
35796;DHT22;21916;52.428;13.302;2022-08-07T16:09:07;32.80;42.30
35796;DHT22;21916;52.428;13.302;2022-08-07T16:33:32;28.90;45.00
35796;DHT22;21916;52.428;13.302;2022-08-07T16:41:53;32.60;42.60
35796;DHT22;21916;52.428;13.302;2022-08-07T16:44:49;33.90;42.00
35796;DHT22;21916;52.428;13.302;2022-08-07T16:56:07;33.10;41.30
35796;DHT22;21916;52.428;13.302;2022-08-07T16:59:02;32.10;41.80
35796;DHT22;21916;52.428;13.302;2022-08-07T17:07:17;30.90;42.50
35796;DHT22;21916;52.428;13.302;2022-08-07T17:09:50;30.60;42.70
35796;DHT22;21916;52.428;13.302;2022-08-07T17:15:16;30.00;43.50
35796;DHT22;21916;52.428;13.302;2022-08-07T17:20:37;30.10;43.50
35796;DHT22;21916;52.428;13.302;2022-08-07T17:31:21;28.10;46.00
35796;DHT22;21916;52.428;13.302;2022-08-07T17:34:15;27.50;46.70
35796;DHT22;21916;52.428;13.302;2022-08-07T17:36:49;27.50;47.10
35796;DHT22;21916;52.428;13.302;2022-08-07T17:44:56;27.00;47.50
35796;DHT22;21916;52.428;13.302;2022-08-07T17:50:23;27.10;47.90
35796;DHT22;21916;52.428;13.302;2022-08-07T17:55:31;26.70;47.80
35796;DHT22;21916;52.428;13.302;2022-08-07T17:58:16;26.80;47.70
35796;DHT22;21916;52.428;13.302;2022-08-07T18:00:46;26.80;48.00
35796;DHT22;21916;52.428;13.302;2022-08-07T18:03:33;26.60;48.30
35796;DHT22;21916;52.428;13.302;2022-08-07T18:06:12;26.10;49.00
35796;DHT22;21916;52.428;13.302;2022-08-07T18:16:46;25.50;50.70
35796;DHT22;21916;52.428;13.302;2022-08-07T18:19:32;25.50;50.90
35796;DHT22;21916;52.428;13.302;2022-08-07T18:22:14;25.30;51.40
35796;DHT22;21916;52.428;13.302;2022-08-07T18:24:49;25.10;51.70
35796;DHT22;21916;52.428;13.302;2022-08-07T18:27:28;24.80;52.20
35796;DHT22;21916;52.428;13.302;2022-08-07T18:30:06;24.70;52.50
35796;DHT22;21916;52.428;13.302;2022-08-07T18:35:41;24.40;53.20
35796;DHT22;21916;52.428;13.302;2022-08-07T18:41:16;24.00;54.10
35796;DHT22;21916;52.428;13.302;2022-08-07T18:44:15;23.80;54.30
35796;DHT22;21916;52.428;13.302;2022-08-07T18:57:34;23.20;55.90
35796;DHT22;21916;52.428;13.302;2022-08-07T19:00:07;23.20;56.00
35796;DHT22;21916;52.428;13.302;2022-08-07T19:10:52;22.90;56.40
35796;DHT22;21916;52.428;13.302;2022-08-07T19:13:54;22.60;57.30
35796;DHT22;21916;52.428;13.302;2022-08-07T19:16:45;22.60;57.50
35796;DHT22;21916;52.428;13.302;2022-08-07T19:19:36;22.50;57.90
35796;DHT22;21916;52.428;13.302;2022-08-07T19:22:14;22.20;58.70
35796;DHT22;21916;52.428;13.302;2022-08-07T19:24:43;22.10;58.60
35796;DHT22;21916;52.428;13.302;2022-08-07T19:27:19;22.00;59.00
35796;DHT22;21916;52.428;13.302;2022-08-07T19:29:48;21.80;59.30
35796;DHT22;21916;52.428;13.302;2022-08-07T19:32:17;21.80;59.70
35796;DHT22;21916;52.428;13.302;2022-08-07T19:34:56;21.80;59.70
35796;DHT22;21916;52.428;13.302;2022-08-07T19:37:24;21.70;60.10
35796;DHT22;21916;52.428;13.302;2022-08-07T19:39:59;21.60;60.40
35796;DHT22;21916;52.428;13.302;2022-08-07T19:42:28;21.60;60.20